sensor_id;sensor_type;location;lat;lon;timestamp;P1;durP1;ratioP1;P2;durP2;ratioP2
13404;SDS011;6773;51.192;7.024;2023-05-07T00:01:44;3.30;;;2.20;;
13404;SDS011;6773;51.192;7.024;2023-05-07T00:04:10;2.20;;;2.00;;
13404;SDS011;6773;51.192;7.024;2023-05-07T00:06:36;4.50;;;2.10;;
13404;SDS011;6773;51.192;7.024;2023-05-07T00:09:02;4.30;;;3.07;;
13404;SDS011;6773;51.192;7.024;2023-05-07T00:11:29;2.90;;;2.10;;
13404;SDS011;6773;51.192;7.024;2023-05-07T00:13:55;3.05;;;2.05;;
13404;SDS011;6773;51.192;7.024;2023-05-07T00:16:20;2.43;;;1.93;;
13404;SDS011;6773;51.192;7.024;2023-05-07T00:18:46;3.33;;;2.03;;
13404;SDS011;6773;51.192;7.024;2023-05-07T00:21:12;4.97;;;2.07;;
13404;SDS011;6773;51.192;7.024;2023-05-07T00:23:38;2.87;;;2.20;;
13404;SDS011;6773;51.192;7.024;2023-05-07T00:26:04;2.73;;;2.00;;
13404;SDS011;6773;51.192;7.024;2023-05-07T00:28:29;2.88;;;1.90;;
13404;SDS011;6773;51.192;7.024;2023-05-07T00:30:55;2.40;;;1.83;;
13404;SDS011;6773;51.192;7.024;2023-05-07T00:33:21;3.55;;;1.77;;
13404;SDS011;6773;51.192;7.024;2023-05-07T00:35:47;2.13;;;1.93;;
13404;SDS011;6773;51.192;7.024;2023-05-07T00:38:13;2.00;;;1.80;;
13404;SDS011;6773;51.192;7.024;2023-05-07T00:40:39;2.22;;;2.03;;
13404;SDS011;6773;51.192;7.024;2023-05-07T00:43:05;2.10;;;1.80;;
13404;SDS011;6773;51.192;7.024;2023-05-07T00:45:32;1.80;;;1.70;;
13404;SDS011;6773;51.192;7.024;2023-05-07T00:47:59;2.58;;;1.83;;
13404;SDS011;6773;51.192;7.024;2023-05-07T00:50:26;2.30;;;2.10;;
13404;SDS011;6773;51.192;7.024;2023-05-07T00:52:52;3.20;;;2.03;;
13404;SDS011;6773;51.192;7.024;2023-05-07T00:55:18;2.17;;;1.70;;
13404;SDS011;6773;51.192;7.024;2023-05-07T00:57:45;2.70;;;1.80;;
13404;SDS011;6773;51.192;7.024;2023-05-07T01:00:11;3.23;;;1.73;;
13404;SDS011;6773;51.192;7.024;2023-05-07T01:02:40;2.20;;;1.90;;
13404;SDS011;6773;51.192;7.024;2023-05-07T01:05:07;1.90;;;1.80;;
13404;SDS011;6773;51.192;7.024;2023-05-07T01:07:34;2.10;;;1.90;;
13404;SDS011;6773;51.192;7.024;2023-05-07T01:10:01;2.20;;;2.00;;
13404;SDS011;6773;51.192;7.024;2023-05-07T01:12:27;3.13;;;1.83;;
13404;SDS011;6773;51.192;7.024;2023-05-07T01:14:54;5.47;;;2.40;;
13404;SDS011;6773;51.192;7.024;2023-05-07T01:17:19;1.83;;;1.73;;
13404;SDS011;6773;51.192;7.024;2023-05-07T01:19:45;3.40;;;2.10;;
13404;SDS011;6773;51.192;7.024;2023-05-07T01:22:13;4.53;;;1.80;;
13404;SDS011;6773;51.192;7.024;2023-05-07T01:24:41;4.00;;;2.07;;
13404;SDS011;6773;51.192;7.024;2023-05-07T01:27:08;2.70;;;1.90;;
13404;SDS011;6773;51.192;7.024;2023-05-07T01:29:33;2.57;;;1.90;;
13404;SDS011;6773;51.192;7.024;2023-05-07T01:32:00;4.50;;;1.90;;
13404;SDS011;6773;51.192;7.024;2023-05-07T01:34:30;2.90;;;2.03;;
13404;SDS011;6773;51.192;7.024;2023-05-07T01:36:57;2.27;;;2.00;;
13404;SDS011;6773;51.192;7.024;2023-05-07T01:39:25;2.03;;;1.80;;
13404;SDS011;6773;51.192;7.024;2023-05-07T01:41:53;1.83;;;1.73;;
13404;SDS011;6773;51.192;7.024;2023-05-07T01:44:19;1.90;;;1.80;;
13404;SDS011;6773;51.192;7.024;2023-05-07T01:46:45;5.00;;;3.20;;
13404;SDS011;6773;51.192;7.024;2023-05-07T01:49:12;2.20;;;1.90;;
13404;SDS011;6773;51.192;7.024;2023-05-07T01:51:38;2.80;;;2.10;;
13404;SDS011;6773;51.192;7.024;2023-05-07T01:54:04;1.67;;;1.57;;
13404;SDS011;6773;51.192;7.024;2023-05-07T01:56:30;2.13;;;1.93;;
13404;SDS011;6773;51.192;7.024;2023-05-07T01:58:56;2.57;;;2.13;;
13404;SDS011;6773;51.192;7.024;2023-05-07T02:01:22;3.20;;;1.90;;
13404;SDS011;6773;51.192;7.024;2023-05-07T02:03:48;2.47;;;2.00;;
13404;SDS011;6773;51.192;7.024;2023-05-07T02:06:14;2.97;;;2.03;;
13404;SDS011;6773;51.192;7.024;2023-05-07T02:08:40;3.30;;;2.23;;
13404;SDS011;6773;51.192;7.024;2023-05-07T02:11:06;2.40;;;1.77;;
13404;SDS011;6773;51.192;7.024;2023-05-07T02:13:32;2.10;;;1.80;;
13404;SDS011;6773;51.192;7.024;2023-05-07T02:15:58;3.10;;;1.87;;
13404;SDS011;6773;51.192;7.024;2023-05-07T02:18:24;2.47;;;2.27;;
13404;SDS011;6773;51.192;7.024;2023-05-07T02:20:50;2.17;;;1.70;;
13404;SDS011;6773;51.192;7.024;2023-05-07T02:23:16;3.50;;;1.90;;
13404;SDS011;6773;51.192;7.024;2023-05-07T02:25:42;3.13;;;2.20;;
13404;SDS011;6773;51.192;7.024;2023-05-07T02:28:08;6.00;;;2.10;;
13404;SDS011;6773;51.192;7.024;2023-05-07T02:30:34;2.37;;;1.73;;
13404;SDS011;6773;51.192;7.024;2023-05-07T02:33:01;2.27;;;2.07;;
13404;SDS011;6773;51.192;7.024;2023-05-07T02:35:27;3.23;;;2.10;;
13404;SDS011;6773;51.192;7.024;2023-05-07T02:37:52;3.57;;;1.97;;
13404;SDS011;6773;51.192;7.024;2023-05-07T02:40:18;2.53;;;2.17;;
13404;SDS011;6773;51.192;7.024;2023-05-07T02:42:43;2.87;;;2.10;;
13404;SDS011;6773;51.192;7.024;2023-05-07T02:45:09;2.47;;;2.23;;
13404;SDS011;6773;51.192;7.024;2023-05-07T02:47:36;2.33;;;2.13;;
13404;SDS011;6773;51.192;7.024;2023-05-07T02:50:01;2.10;;;1.90;;
13404;SDS011;6773;51.192;7.024;2023-05-07T02:52:27;2.10;;;1.90;;
13404;SDS011;6773;51.192;7.024;2023-05-07T02:54:53;3.20;;;2.13;;
13404;SDS011;6773;51.192;7.024;2023-05-07T02:57:18;2.80;;;2.07;;
13404;SDS011;6773;51.192;7.024;2023-05-07T02:59:44;2.63;;;2.23;;
13404;SDS011;6773;51.192;7.024;2023-05-07T03:02:10;2.90;;;2.10;;
13404;SDS011;6773;51.192;7.024;2023-05-07T03:04:36;2.27;;;1.93;;
13404;SDS011;6773;51.192;7.024;2023-05-07T03:07:01;2.87;;;2.00;;
13404;SDS011;6773;51.192;7.024;2023-05-07T03:09:27;2.73;;;2.13;;
13404;SDS011;6773;51.192;7.024;2023-05-07T03:11:53;2.47;;;2.10;;
13404;SDS011;6773;51.192;7.024;2023-05-07T03:14:19;2.20;;;1.97;;
13404;SDS011;6773;51.192;7.024;2023-05-07T03:16:45;2.20;;;2.00;;
13404;SDS011;6773;51.192;7.024;2023-05-07T03:19:11;3.87;;;2.07;;
13404;SDS011;6773;51.192;7.024;2023-05-07T03:21:37;2.20;;;2.00;;
13404;SDS011;6773;51.192;7.024;2023-05-07T03:24:02;2.10;;;1.90;;
13404;SDS011;6773;51.192;7.024;2023-05-07T03:26:28;2.73;;;1.90;;
13404;SDS011;6773;51.192;7.024;2023-05-07T03:28:54;1.90;;;1.80;;
13404;SDS011;6773;51.192;7.024;2023-05-07T03:31:20;2.47;;;2.27;;
13404;SDS011;6773;51.192;7.024;2023-05-07T03:33:53;2.47;;;1.80;;
13404;SDS011;6773;51.192;7.024;2023-05-07T03:36:19;2.10;;;1.90;;
13404;SDS011;6773;51.192;7.024;2023-05-07T03:38:45;2.10;;;1.90;;
13404;SDS011;6773;51.192;7.024;2023-05-07T03:41:11;3.43;;;2.00;;
13404;SDS011;6773;51.192;7.024;2023-05-07T03:43:38;1.90;;;1.70;;
13404;SDS011;6773;51.192;7.024;2023-05-07T03:46:03;2.50;;;2.00;;
13404;SDS011;6773;51.192;7.024;2023-05-07T03:48:29;3.13;;;1.93;;
13404;SDS011;6773;51.192;7.024;2023-05-07T03:50:55;4.77;;;2.20;;
13404;SDS011;6773;51.192;7.024;2023-05-07T03:53:21;2.10;;;1.90;;
13404;SDS011;6773;51.192;7.024;2023-05-07T03:55:47;2.50;;;2.00;;
13404;SDS011;6773;51.192;7.024;2023-05-07T03:58:14;2.23;;;2.00;;
13404;SDS011;6773;51.192;7.024;2023-05-07T04:00:40;4.43;;;2.10;;
13404;SDS011;6773;51.192;7.024;2023-05-07T04:03:06;2.10;;;1.90;;
13404;SDS011;6773;51.192;7.024;2023-05-07T04:05:32;3.67;;;2.20;;
13404;SDS011;6773;51.192;7.024;2023-05-07T04:07:58;4.60;;;2.10;;
13404;SDS011;6773;51.192;7.024;2023-05-07T04:10:24;2.07;;;1.83;;
13404;SDS011;6773;51.192;7.024;2023-05-07T04:12:50;4.23;;;1.80;;
13404;SDS011;6773;51.192;7.024;2023-05-07T04:15:16;2.17;;;2.07;;
13404;SDS011;6773;51.192;7.024;2023-05-07T04:17:41;2.20;;;1.87;;
13404;SDS011;6773;51.192;7.024;2023-05-07T04:20:12;3.40;;;2.17;;
13404;SDS011;6773;51.192;7.024;2023-05-07T04:22:39;2.27;;;2.07;;
13404;SDS011;6773;51.192;7.024;2023-05-07T04:25:06;3.27;;;1.93;;
13404;SDS011;6773;51.192;7.024;2023-05-07T04:27:33;3.13;;;1.93;;
13404;SDS011;6773;51.192;7.024;2023-05-07T04:29:58;2.73;;;2.07;;
13404;SDS011;6773;51.192;7.024;2023-05-07T04:32:25;3.67;;;2.20;;
13404;SDS011;6773;51.192;7.024;2023-05-07T04:34:51;2.30;;;2.10;;
13404;SDS011;6773;51.192;7.024;2023-05-07T04:37:17;3.00;;;2.00;;
13404;SDS011;6773;51.192;7.024;2023-05-07T04:39:43;3.43;;;2.13;;
13404;SDS011;6773;51.192;7.024;2023-05-07T04:42:09;1.80;;;1.70;;
13404;SDS011;6773;51.192;7.024;2023-05-07T04:44:35;3.37;;;1.80;;
13404;SDS011;6773;51.192;7.024;2023-05-07T04:47:02;2.90;;;2.13;;
13404;SDS011;6773;51.192;7.024;2023-05-07T04:49:27;2.73;;;1.80;;
13404;SDS011;6773;51.192;7.024;2023-05-07T04:51:53;3.27;;;1.70;;
13404;SDS011;6773;51.192;7.024;2023-05-07T04:54:19;2.63;;;2.23;;
13404;SDS011;6773;51.192;7.024;2023-05-07T04:56:44;1.93;;;1.83;;
13404;SDS011;6773;51.192;7.024;2023-05-07T04:59:10;2.03;;;1.67;;
13404;SDS011;6773;51.192;7.024;2023-05-07T05:01:36;2.63;;;1.77;;
13404;SDS011;6773;51.192;7.024;2023-05-07T05:04:02;2.00;;;1.90;;
13404;SDS011;6773;51.192;7.024;2023-05-07T05:06:28;2.30;;;1.80;;
13404;SDS011;6773;51.192;7.024;2023-05-07T05:08:54;2.77;;;2.07;;
13404;SDS011;6773;51.192;7.024;2023-05-07T05:11:20;2.63;;;2.00;;
13404;SDS011;6773;51.192;7.024;2023-05-07T05:13:46;2.30;;;2.10;;
13404;SDS011;6773;51.192;7.024;2023-05-07T05:16:14;2.63;;;2.10;;
13404;SDS011;6773;51.192;7.024;2023-05-07T05:18:40;2.30;;;1.90;;
13404;SDS011;6773;51.192;7.024;2023-05-07T05:21:06;2.17;;;1.80;;
13404;SDS011;6773;51.192;7.024;2023-05-07T05:23:31;3.77;;;1.90;;
13404;SDS011;6773;51.192;7.024;2023-05-07T05:25:58;4.80;;;2.33;;
13404;SDS011;6773;51.192;7.024;2023-05-07T05:28:24;2.03;;;1.87;;
13404;SDS011;6773;51.192;7.024;2023-05-07T05:30:50;2.50;;;1.90;;
13404;SDS011;6773;51.192;7.024;2023-05-07T05:33:16;2.77;;;1.80;;
13404;SDS011;6773;51.192;7.024;2023-05-07T05:35:42;2.17;;;1.70;;
13404;SDS011;6773;51.192;7.024;2023-05-07T05:38:08;2.90;;;2.47;;
13404;SDS011;6773;51.192;7.024;2023-05-07T05:40:33;1.80;;;1.70;;
13404;SDS011;6773;51.192;7.024;2023-05-07T05:42:59;2.43;;;1.80;;
13404;SDS011;6773;51.192;7.024;2023-05-07T05:45:25;2.37;;;1.97;;
13404;SDS011;6773;51.192;7.024;2023-05-07T05:47:51;3.60;;;1.85;;
13404;SDS011;6773;51.192;7.024;2023-05-07T05:50:17;2.83;;;1.95;;
13404;SDS011;6773;51.192;7.024;2023-05-07T05:52:43;2.10;;;1.90;;
13404;SDS011;6773;51.192;7.024;2023-05-07T05:55:09;1.70;;;1.60;;
13404;SDS011;6773;51.192;7.024;2023-05-07T05:57:34;2.90;;;1.80;;
13404;SDS011;6773;51.192;7.024;2023-05-07T06:00:01;2.42;;;1.77;;
13404;SDS011;6773;51.192;7.024;2023-05-07T06:02:27;5.07;;;2.20;;
13404;SDS011;6773;51.192;7.024;2023-05-07T06:04:53;2.13;;;1.92;;
13404;SDS011;6773;51.192;7.024;2023-05-07T06:07:18;2.40;;;1.80;;
13404;SDS011;6773;51.192;7.024;2023-05-07T06:09:44;2.13;;;1.92;;
13404;SDS011;6773;51.192;7.024;2023-05-07T06:12:10;2.20;;;1.80;;
13404;SDS011;6773;51.192;7.024;2023-05-07T06:14:36;3.08;;;1.80;;
13404;SDS011;6773;51.192;7.024;2023-05-07T06:17:02;2.28;;;2.08;;
13404;SDS011;6773;51.192;7.024;2023-05-07T06:19:27;2.72;;;1.77;;
13404;SDS011;6773;51.192;7.024;2023-05-07T06:21:53;2.00;;;1.77;;
13404;SDS011;6773;51.192;7.024;2023-05-07T06:24:21;2.90;;;2.28;;
13404;SDS011;6773;51.192;7.024;2023-05-07T06:26:47;2.17;;;1.98;;
13404;SDS011;6773;51.192;7.024;2023-05-07T06:29:13;2.95;;;1.50;;
13404;SDS011;6773;51.192;7.024;2023-05-07T06:31:39;2.20;;;2.00;;
13404;SDS011;6773;51.192;7.024;2023-05-07T06:34:05;2.28;;;1.95;;
13404;SDS011;6773;51.192;7.024;2023-05-07T06:36:31;1.83;;;1.73;;
13404;SDS011;6773;51.192;7.024;2023-05-07T06:38:57;3.28;;;2.00;;
13404;SDS011;6773;51.192;7.024;2023-05-07T06:41:22;2.60;;;2.25;;
13404;SDS011;6773;51.192;7.024;2023-05-07T06:43:48;2.10;;;1.90;;
13404;SDS011;6773;51.192;7.024;2023-05-07T06:46:15;3.13;;;1.98;;
13404;SDS011;6773;51.192;7.024;2023-05-07T06:48:41;2.13;;;1.90;;
13404;SDS011;6773;51.192;7.024;2023-05-07T06:51:07;2.42;;;1.67;;
13404;SDS011;6773;51.192;7.024;2023-05-07T06:53:33;1.75;;;1.63;;
13404;SDS011;6773;51.192;7.024;2023-05-07T06:55:59;2.75;;;1.67;;
13404;SDS011;6773;51.192;7.024;2023-05-07T06:58:25;1.88;;;1.60;;
13404;SDS011;6773;51.192;7.024;2023-05-07T07:00:51;1.83;;;1.50;;
13404;SDS011;6773;51.192;7.024;2023-05-07T07:03:17;2.30;;;1.95;;
13404;SDS011;6773;51.192;7.024;2023-05-07T07:05:43;2.15;;;1.80;;
13404;SDS011;6773;51.192;7.024;2023-05-07T07:08:09;1.88;;;1.70;;
13404;SDS011;6773;51.192;7.024;2023-05-07T07:10:35;2.42;;;1.67;;
13404;SDS011;6773;51.192;7.024;2023-05-07T07:13:00;1.77;;;1.67;;
13404;SDS011;6773;51.192;7.024;2023-05-07T07:15:26;1.60;;;1.40;;
13404;SDS011;6773;51.192;7.024;2023-05-07T07:17:52;1.42;;;1.33;;
13404;SDS011;6773;51.192;7.024;2023-05-07T07:20:17;1.73;;;1.63;;
13404;SDS011;6773;51.192;7.024;2023-05-07T07:22:43;2.15;;;1.70;;
13404;SDS011;6773;51.192;7.024;2023-05-07T07:25:09;1.58;;;1.48;;
13404;SDS011;6773;51.192;7.024;2023-05-07T07:27:36;3.38;;;1.65;;
13404;SDS011;6773;51.192;7.024;2023-05-07T07:30:02;3.47;;;1.60;;
13404;SDS011;6773;51.192;7.024;2023-05-07T07:32:28;3.42;;;1.70;;
13404;SDS011;6773;51.192;7.024;2023-05-07T07:34:54;1.67;;;1.38;;
13404;SDS011;6773;51.192;7.024;2023-05-07T07:37:20;2.10;;;1.77;;
13404;SDS011;6773;51.192;7.024;2023-05-07T07:39:46;1.67;;;1.30;;
13404;SDS011;6773;51.192;7.024;2023-05-07T07:42:12;1.60;;;1.50;;
13404;SDS011;6773;51.192;7.024;2023-05-07T07:44:38;1.90;;;1.65;;
13404;SDS011;6773;51.192;7.024;2023-05-07T07:47:04;1.42;;;1.33;;
13404;SDS011;6773;51.192;7.024;2023-05-07T07:49:30;1.90;;;1.50;;
13404;SDS011;6773;51.192;7.024;2023-05-07T07:51:55;1.95;;;1.50;;
13404;SDS011;6773;51.192;7.024;2023-05-07T07:54:24;2.05;;;1.40;;
13404;SDS011;6773;51.192;7.024;2023-05-07T07:56:50;1.58;;;1.48;;
13404;SDS011;6773;51.192;7.024;2023-05-07T07:59:16;1.42;;;1.33;;
13404;SDS011;6773;51.192;7.024;2023-05-07T08:01:44;1.92;;;1.50;;
13404;SDS011;6773;51.192;7.024;2023-05-07T08:04:10;1.70;;;1.45;;
13404;SDS011;6773;51.192;7.024;2023-05-07T08:06:35;2.47;;;1.60;;
13404;SDS011;6773;51.192;7.024;2023-05-07T08:09:02;1.90;;;1.60;;
13404;SDS011;6773;51.192;7.024;2023-05-07T08:11:28;1.63;;;1.50;;
13404;SDS011;6773;51.192;7.024;2023-05-07T08:13:54;1.88;;;1.20;;
13404;SDS011;6773;51.192;7.024;2023-05-07T08:16:20;4.03;;;1.67;;
13404;SDS011;6773;51.192;7.024;2023-05-07T08:18:46;1.90;;;1.50;;
13404;SDS011;6773;51.192;7.024;2023-05-07T08:21:12;1.73;;;1.58;;
13404;SDS011;6773;51.192;7.024;2023-05-07T08:23:38;3.70;;;1.60;;
13404;SDS011;6773;51.192;7.024;2023-05-07T08:26:04;1.42;;;1.33;;
13404;SDS011;6773;51.192;7.024;2023-05-07T08:28:30;1.60;;;1.50;;
13404;SDS011;6773;51.192;7.024;2023-05-07T08:30:56;3.88;;;1.88;;
13404;SDS011;6773;51.192;7.024;2023-05-07T08:33:24;3.33;;;1.50;;
13404;SDS011;6773;51.192;7.024;2023-05-07T08:35:50;2.15;;;1.63;;
13404;SDS011;6773;51.192;7.024;2023-05-07T08:38:16;2.13;;;1.85;;
13404;SDS011;6773;51.192;7.024;2023-05-07T08:40:42;2.30;;;1.35;;
13404;SDS011;6773;51.192;7.024;2023-05-07T08:43:08;1.95;;;1.70;;
13404;SDS011;6773;51.192;7.024;2023-05-07T08:45:37;2.42;;;1.58;;
13404;SDS011;6773;51.192;7.024;2023-05-07T08:48:07;2.25;;;1.70;;
13404;SDS011;6773;51.192;7.024;2023-05-07T08:50:35;2.05;;;1.50;;
13404;SDS011;6773;51.192;7.024;2023-05-07T08:53:05;2.55;;;1.60;;
13404;SDS011;6773;51.192;7.024;2023-05-07T08:55:31;2.88;;;1.50;;
13404;SDS011;6773;51.192;7.024;2023-05-07T08:57:58;1.95;;;1.70;;
13404;SDS011;6773;51.192;7.024;2023-05-07T09:00:24;2.83;;;1.70;;
13404;SDS011;6773;51.192;7.024;2023-05-07T09:02:49;2.58;;;1.65;;
13404;SDS011;6773;51.192;7.024;2023-05-07T09:05:15;1.65;;;1.50;;
13404;SDS011;6773;51.192;7.024;2023-05-07T09:07:41;1.77;;;1.60;;
13404;SDS011;6773;51.192;7.024;2023-05-07T09:10:07;2.22;;;1.50;;
13404;SDS011;6773;51.192;7.024;2023-05-07T09:12:33;2.97;;;2.03;;
13404;SDS011;6773;51.192;7.024;2023-05-07T09:15:00;2.15;;;2.05;;
13404;SDS011;6773;51.192;7.024;2023-05-07T09:17:26;1.92;;;1.83;;
13404;SDS011;6773;51.192;7.024;2023-05-07T09:19:51;1.55;;;1.42;;
13404;SDS011;6773;51.192;7.024;2023-05-07T09:22:18;3.70;;;1.70;;
13404;SDS011;6773;51.192;7.024;2023-05-07T09:24:48;2.75;;;1.80;;
13404;SDS011;6773;51.192;7.024;2023-05-07T09:27:14;2.55;;;1.90;;
13404;SDS011;6773;51.192;7.024;2023-05-07T09:29:40;2.40;;;1.80;;
13404;SDS011;6773;51.192;7.024;2023-05-07T09:32:06;3.25;;;1.60;;
13404;SDS011;6773;51.192;7.024;2023-05-07T09:34:32;1.73;;;1.60;;
13404;SDS011;6773;51.192;7.024;2023-05-07T09:36:59;2.60;;;1.60;;
13404;SDS011;6773;51.192;7.024;2023-05-07T09:39:42;2.15;;;1.55;;
13404;SDS011;6773;51.192;7.024;2023-05-07T09:42:09;2.65;;;1.60;;
13404;SDS011;6773;51.192;7.024;2023-05-07T09:44:36;2.65;;;1.50;;
13404;SDS011;6773;51.192;7.024;2023-05-07T09:47:04;3.72;;;1.73;;
13404;SDS011;6773;51.192;7.024;2023-05-07T09:49:32;1.70;;;1.60;;
13404;SDS011;6773;51.192;7.024;2023-05-07T09:52:00;1.50;;;1.40;;
13404;SDS011;6773;51.192;7.024;2023-05-07T09:54:26;1.88;;;1.50;;
13404;SDS011;6773;51.192;7.024;2023-05-07T09:56:55;1.55;;;1.45;;
13404;SDS011;6773;51.192;7.024;2023-05-07T09:59:22;3.70;;;1.40;;
13404;SDS011;6773;51.192;7.024;2023-05-07T10:01:49;1.77;;;1.50;;
13404;SDS011;6773;51.192;7.024;2023-05-07T10:04:17;2.85;;;1.42;;
13404;SDS011;6773;51.192;7.024;2023-05-07T10:06:43;2.80;;;1.50;;
13404;SDS011;6773;51.192;7.024;2023-05-07T10:09:10;1.30;;;1.20;;
13404;SDS011;6773;51.192;7.024;2023-05-07T10:11:36;2.00;;;1.42;;
13404;SDS011;6773;51.192;7.024;2023-05-07T10:14:03;1.73;;;1.20;;
13404;SDS011;6773;51.192;7.024;2023-05-07T10:16:33;1.95;;;1.35;;
13404;SDS011;6773;51.192;7.024;2023-05-07T10:19:03;1.20;;;1.10;;
13404;SDS011;6773;51.192;7.024;2023-05-07T10:21:30;1.40;;;1.13;;
13404;SDS011;6773;51.192;7.024;2023-05-07T10:24:31;1.77;;;1.25;;
13404;SDS011;6773;51.192;7.024;2023-05-07T10:26:51;2.63;;;1.13;;
13404;SDS011;6773;51.192;7.024;2023-05-07T10:35:04;1.52;;;1.02;;
13404;SDS011;6773;51.192;7.024;2023-05-07T10:37:35;2.53;;;1.38;;
13404;SDS011;6773;51.192;7.024;2023-05-07T10:40:01;1.73;;;1.30;;
13404;SDS011;6773;51.192;7.024;2023-05-07T10:42:28;2.22;;;1.40;;
13404;SDS011;6773;51.192;7.024;2023-05-07T10:44:54;1.42;;;1.30;;
13404;SDS011;6773;51.192;7.024;2023-05-07T10:47:20;1.50;;;1.10;;
13404;SDS011;6773;51.192;7.024;2023-05-07T10:54:41;1.55;;;1.20;;
13404;SDS011;6773;51.192;7.024;2023-05-07T10:59:52;2.13;;;1.40;;
13404;SDS011;6773;51.192;7.024;2023-05-07T11:02:18;1.40;;;1.30;;
13404;SDS011;6773;51.192;7.024;2023-05-07T11:04:44;1.10;;;1.10;;
13404;SDS011;6773;51.192;7.024;2023-05-07T11:07:15;3.25;;;1.50;;
13404;SDS011;6773;51.192;7.024;2023-05-07T11:13:03;1.35;;;1.20;;
13404;SDS011;6773;51.192;7.024;2023-05-07T11:15:04;1.20;;;1.10;;
13404;SDS011;6773;51.192;7.024;2023-05-07T11:17:30;1.70;;;1.38;;
13404;SDS011;6773;51.192;7.024;2023-05-07T11:20:00;1.33;;;1.23;;
13404;SDS011;6773;51.192;7.024;2023-05-07T11:25:02;1.70;;;1.27;;
13404;SDS011;6773;51.192;7.024;2023-05-07T11:27:28;1.95;;;1.30;;
13404;SDS011;6773;51.192;7.024;2023-05-07T11:29:54;1.38;;;1.27;;
13404;SDS011;6773;51.192;7.024;2023-05-07T11:34:55;1.98;;;1.40;;
13404;SDS011;6773;51.192;7.024;2023-05-07T11:37:22;2.03;;;1.30;;
13404;SDS011;6773;51.192;7.024;2023-05-07T11:39:49;2.05;;;1.13;;
13404;SDS011;6773;51.192;7.024;2023-05-07T11:42:30;3.13;;;1.50;;
13404;SDS011;6773;51.192;7.024;2023-05-07T11:44:57;1.55;;;1.23;;
13404;SDS011;6773;51.192;7.024;2023-05-07T11:47:23;1.65;;;1.52;;
13404;SDS011;6773;51.192;7.024;2023-05-07T11:49:53;1.45;;;1.30;;
13404;SDS011;6773;51.192;7.024;2023-05-07T11:52:20;1.40;;;1.20;;
13404;SDS011;6773;51.192;7.024;2023-05-07T11:57:16;1.52;;;1.42;;
13404;SDS011;6773;51.192;7.024;2023-05-07T11:59:41;1.40;;;1.30;;
13404;SDS011;6773;51.192;7.024;2023-05-07T12:02:13;1.52;;;1.30;;
13404;SDS011;6773;51.192;7.024;2023-05-07T12:04:40;1.88;;;1.60;;
13404;SDS011;6773;51.192;7.024;2023-05-07T12:07:12;1.50;;;1.40;;
13404;SDS011;6773;51.192;7.024;2023-05-07T12:09:39;1.48;;;1.38;;
13404;SDS011;6773;51.192;7.024;2023-05-07T12:12:05;1.95;;;1.35;;
13404;SDS011;6773;51.192;7.024;2023-05-07T12:14:31;1.75;;;1.33;;
13404;SDS011;6773;51.192;7.024;2023-05-07T12:16:58;1.45;;;1.35;;
13404;SDS011;6773;51.192;7.024;2023-05-07T12:19:27;3.05;;;1.38;;
13404;SDS011;6773;51.192;7.024;2023-05-07T12:21:54;1.88;;;1.70;;
13404;SDS011;6773;51.192;7.024;2023-05-07T12:24:19;1.58;;;1.48;;
13404;SDS011;6773;51.192;7.024;2023-05-07T12:26:46;3.28;;;1.65;;
13404;SDS011;6773;51.192;7.024;2023-05-07T12:29:12;2.50;;;1.60;;
13404;SDS011;6773;51.192;7.024;2023-05-07T12:31:40;4.18;;;1.65;;
13404;SDS011;6773;51.192;7.024;2023-05-07T12:34:06;2.30;;;1.50;;
13404;SDS011;6773;51.192;7.024;2023-05-07T12:36:36;2.08;;;1.70;;
13404;SDS011;6773;51.192;7.024;2023-05-07T12:39:04;2.35;;;2.08;;
13404;SDS011;6773;51.192;7.024;2023-05-07T12:41:51;2.75;;;1.60;;
13404;SDS011;6773;51.192;7.024;2023-05-07T12:44:18;1.73;;;1.60;;
13404;SDS011;6773;51.192;7.024;2023-05-07T12:46:44;1.90;;;1.67;;
13404;SDS011;6773;51.192;7.024;2023-05-07T12:49:12;2.28;;;1.98;;
13404;SDS011;6773;51.192;7.024;2023-05-07T12:51:38;2.70;;;2.17;;
13404;SDS011;6773;51.192;7.024;2023-05-07T12:54:04;2.35;;;1.80;;
13404;SDS011;6773;51.192;7.024;2023-05-07T12:56:30;1.92;;;1.58;;
13404;SDS011;6773;51.192;7.024;2023-05-07T12:58:59;2.40;;;1.90;;
13404;SDS011;6773;51.192;7.024;2023-05-07T13:01:28;2.30;;;2.10;;
13404;SDS011;6773;51.192;7.024;2023-05-07T13:03:54;2.45;;;1.80;;
13404;SDS011;6773;51.192;7.024;2023-05-07T13:06:20;1.85;;;1.65;;
13404;SDS011;6773;51.192;7.024;2023-05-07T13:08:46;2.72;;;1.65;;
13404;SDS011;6773;51.192;7.024;2023-05-07T13:11:12;2.20;;;1.60;;
13404;SDS011;6773;51.192;7.024;2023-05-07T13:13:39;2.80;;;1.70;;
13404;SDS011;6773;51.192;7.024;2023-05-07T13:16:06;2.10;;;1.90;;
13404;SDS011;6773;51.192;7.024;2023-05-07T13:18:34;4.13;;;2.00;;
13404;SDS011;6773;51.192;7.024;2023-05-07T13:21:00;2.25;;;1.90;;
13404;SDS011;6773;51.192;7.024;2023-05-07T13:23:27;2.78;;;2.17;;
13404;SDS011;6773;51.192;7.024;2023-05-07T13:25:53;2.90;;;2.40;;
13404;SDS011;6773;51.192;7.024;2023-05-07T13:28:20;3.28;;;2.70;;
13404;SDS011;6773;51.192;7.024;2023-05-07T13:30:46;4.22;;;3.10;;
13404;SDS011;6773;51.192;7.024;2023-05-07T13:33:13;5.50;;;3.00;;
13404;SDS011;6773;51.192;7.024;2023-05-07T13:35:38;3.30;;;2.85;;
13404;SDS011;6773;51.192;7.024;2023-05-07T13:38:04;3.38;;;2.80;;
13404;SDS011;6773;51.192;7.024;2023-05-07T13:40:30;3.00;;;2.80;;
13404;SDS011;6773;51.192;7.024;2023-05-07T13:42:57;4.20;;;2.63;;
13404;SDS011;6773;51.192;7.024;2023-05-07T13:45:23;3.22;;;2.92;;
13404;SDS011;6773;51.192;7.024;2023-05-07T13:47:50;5.57;;;2.88;;
13404;SDS011;6773;51.192;7.024;2023-05-07T13:50:16;3.10;;;2.70;;
13404;SDS011;6773;51.192;7.024;2023-05-07T13:52:43;2.80;;;2.60;;
13404;SDS011;6773;51.192;7.024;2023-05-07T13:55:15;3.03;;;2.42;;
13404;SDS011;6773;51.192;7.024;2023-05-07T13:57:41;3.53;;;1.95;;
13404;SDS011;6773;51.192;7.024;2023-05-07T14:00:07;3.42;;;2.50;;
13404;SDS011;6773;51.192;7.024;2023-05-07T14:02:33;2.22;;;1.88;;
13404;SDS011;6773;51.192;7.024;2023-05-07T14:04:59;2.22;;;1.80;;
13404;SDS011;6773;51.192;7.024;2023-05-07T14:07:24;2.05;;;1.70;;
13404;SDS011;6773;51.192;7.024;2023-05-07T14:09:50;2.30;;;1.80;;
13404;SDS011;6773;51.192;7.024;2023-05-07T14:12:16;4.65;;;2.15;;
13404;SDS011;6773;51.192;7.024;2023-05-07T14:14:42;4.00;;;1.80;;
13404;SDS011;6773;51.192;7.024;2023-05-07T14:17:08;3.00;;;2.08;;
13404;SDS011;6773;51.192;7.024;2023-05-07T14:19:33;2.35;;;1.98;;
13404;SDS011;6773;51.192;7.024;2023-05-07T14:22:00;2.72;;;2.10;;
13404;SDS011;6773;51.192;7.024;2023-05-07T14:24:26;3.13;;;2.47;;
13404;SDS011;6773;51.192;7.024;2023-05-07T14:26:51;2.42;;;2.22;;
13404;SDS011;6773;51.192;7.024;2023-05-07T14:29:18;3.53;;;2.42;;
13404;SDS011;6773;51.192;7.024;2023-05-07T14:31:44;3.10;;;2.80;;
13404;SDS011;6773;51.192;7.024;2023-05-07T14:34:10;2.95;;;2.65;;
13404;SDS011;6773;51.192;7.024;2023-05-07T14:36:36;6.28;;;2.88;;
13404;SDS011;6773;51.192;7.024;2023-05-07T14:39:03;4.40;;;3.03;;
13404;SDS011;6773;51.192;7.024;2023-05-07T14:41:32;3.75;;;3.40;;
13404;SDS011;6773;51.192;7.024;2023-05-07T14:43:58;4.05;;;3.65;;
13404;SDS011;6773;51.192;7.024;2023-05-07T14:46:24;5.05;;;4.32;;
13404;SDS011;6773;51.192;7.024;2023-05-07T14:48:50;6.45;;;5.22;;
13404;SDS011;6773;51.192;7.024;2023-05-07T14:51:16;7.35;;;5.63;;
13404;SDS011;6773;51.192;7.024;2023-05-07T14:53:42;6.15;;;5.30;;
13404;SDS011;6773;51.192;7.024;2023-05-07T14:56:08;9.15;;;5.45;;
13404;SDS011;6773;51.192;7.024;2023-05-07T14:58:34;6.88;;;6.00;;
13404;SDS011;6773;51.192;7.024;2023-05-07T15:01:00;7.03;;;6.32;;
13404;SDS011;6773;51.192;7.024;2023-05-07T15:03:26;10.90;;;6.20;;
13404;SDS011;6773;51.192;7.024;2023-05-07T15:05:52;8.23;;;6.53;;
13404;SDS011;6773;51.192;7.024;2023-05-07T15:08:18;7.35;;;6.50;;
13404;SDS011;6773;51.192;7.024;2023-05-07T15:10:44;11.43;;;7.00;;
13404;SDS011;6773;51.192;7.024;2023-05-07T15:13:10;11.18;;;7.07;;
13404;SDS011;6773;51.192;7.024;2023-05-07T15:15:37;10.48;;;7.40;;
13404;SDS011;6773;51.192;7.024;2023-05-07T15:18:03;8.20;;;7.40;;
13404;SDS011;6773;51.192;7.024;2023-05-07T15:20:29;11.70;;;8.23;;